Time,TemperatureF,DewpointF,PressureIn,WindDirection,WindDirectionDegrees,WindSpeedMPH,WindSpeedGustMPH,Humidity,HourlyPrecipIn,Conditions,Clouds,dailyrainin,SoftwareType,DateUTC
2013-08-10 00:02:00,62.0,-99.9,-100.00,ESE,118,2.0,5.0,-999,0.00,,,-99.99,,2013-08-10 06:02:00,
2013-08-10 00:11:00,61.0,-99.9,-100.00,ESE,122,5.0,6.0,-999,0.00,,,-99.99,,2013-08-10 06:11:00,
2013-08-10 00:22:00,61.0,-99.9,-100.00,North,0,0.0,0.0,-999,0.00,,,-99.99,,2013-08-10 06:22:00,
2013-08-10 00:32:00,61.0,-99.9,-100.00,North,0,0.0,0.0,-999,0.00,,,-99.99,,2013-08-10 06:32:00,
2013-08-10 00:44:00,61.0,-99.9,-100.00,ESE,111,2.0,5.0,-999,0.00,,,-99.99,,2013-08-10 06:44:00,
2013-08-10 00:53:00,61.0,-99.9,-100.00,North,0,0.0,0.0,-999,0.00,,,-99.99,,2013-08-10 06:53:00,
2013-08-10 01:02:00,60.0,-99.9,-100.00,North,0,0.0,0.0,-999,0.00,,,-99.99,,2013-08-10 07:02:00,
2013-08-10 01:13:00,60.0,-99.9,-100.00,ESE,115,2.0,5.0,-999,0.00,,,-99.99,,2013-08-10 07:13:00,
2013-08-10 01:22:00,60.0,-99.9,-100.00,North,0,0.0,0.0,-999,0.00,,,-99.99,,2013-08-10 07:22:00,
2013-08-10 01:33:00,60.0,-99.9,-100.00,North,0,0.0,0.0,-999,0.00,,,-99.99,,2013-08-10 07:33:00,
2013-08-10 01:43:00,60.0,-99.9,-100.00,North,0,0.0,0.0,-999,0.00,,,-99.99,,2013-08-10 07:43:00,
2013-08-10 01:52:00,60.0,-99.9,-100.00,North,0,0.0,0.0,-999,0.00,,,-99.99,,2013-08-10 07:52:00,
2013-08-10 02:02:00,60.0,-99.9,-100.00,North,0,0.0,0.0,-999,0.00,,,-99.99,,2013-08-10 08:02:00,
2013-08-10 02:12:00,59.0,-99.9,-100.00,North,0,0.0,0.0,-999,0.00,,,-99.99,,2013-08-10 08:12:00,
2013-08-10 02:22:00,59.0,-99.9,-100.00,North,0,0.0,0.0,-999,0.00,,,-99.99,,2013-08-10 08:22:00,
2013-08-10 02:32:00,58.0,-99.9,-100.00,North,0,0.0,0.0,-999,0.00,,,-99.99,,2013-08-10 08:32:00,
2013-08-10 02:43:00,58.0,-99.9,-100.00,North,0,0.0,0.0,-999,0.00,,,-99.99,,2013-08-10 08:43:00,
2013-08-10 02:53:00,58.0,-99.9,-100.00,North,0,0.0,0.0,-999,0.00,,,-99.99,,2013-08-10 08:53:00,
2013-08-10 03:02:00,58.0,-99.9,-100.00,ENE,73,0.0,4.0,-999,0.00,,,-99.99,,2013-08-10 09:02:00,
2013-08-10 03:12:00,58.0,-99.9,-100.00,North,0,0.0,0.0,-999,0.00,,,-99.99,,2013-08-10 09:12:00,
2013-08-10 03:22:00,57.0,-99.9,-100.00,North,0,0.0,0.0,-999,0.00,,,-99.99,,2013-08-10 09:22:00,
2013-08-10 03:32:00,57.0,-99.9,-100.00,North,0,0.0,0.0,-999,0.00,,,-99.99,,2013-08-10 09:32:00,
2013-08-10 03:43:00,57.0,-99.9,-100.00,ENE,73,0.0,3.0,-999,0.00,,,-99.99,,2013-08-10 09:43:00,
2013-08-10 03:52:00,57.0,-99.9,-100.00,North,0,0.0,0.0,-999,0.00,,,-99.99,,2013-08-10 09:52:00,
2013-08-10 04:02:00,56.0,-99.9,-100.00,East,91,1.0,5.0,-999,0.00,,,-99.99,,2013-08-10 10:02:00,
2013-08-10 04:12:00,56.0,-99.9,-100.00,North,0,0.0,0.0,-999,0.00,,,-99.99,,2013-08-10 10:12:00,
2013-08-10 04:22:00,56.0,-99.9,-100.00,ESE,120,1.0,4.0,-999,0.00,,,-99.99,,2013-08-10 10:22:00,
2013-08-10 04:33:00,56.0,-99.9,-100.00,ESE,108,2.0,4.0,-999,0.00,,,-99.99,,2013-08-10 10:33:00,
2013-08-10 04:44:00,56.0,-99.9,-100.00,North,0,0.0,0.0,-999,0.00,,,-99.99,,2013-08-10 10:44:00,
2013-08-10 04:53:00,55.0,-99.9,-100.00,North,0,0.0,0.0,-999,0.00,,,-99.99,,2013-08-10 10:53:00,
2013-08-10 05:02:00,55.0,-99.9,-100.00,North,0,0.0,0.0,-999,0.00,,,-99.99,,2013-08-10 11:02:00,
2013-08-10 05:12:00,55.0,-99.9,-100.00,North,0,0.0,0.0,-999,0.00,,,-99.99,,2013-08-10 11:12:00,
2013-08-10 05:22:00,55.0,-99.9,-100.00,North,0,0.0,0.0,-999,0.00,,,-99.99,,2013-08-10 11:22:00,
2013-08-10 05:33:00,55.0,-99.9,-100.00,North,0,0.0,0.0,-999,0.00,,,-99.99,,2013-08-10 11:33:00,
2013-08-10 05:43:00,54.0,-99.9,-100.00,North,0,0.0,0.0,-999,0.00,,,-99.99,,2013-08-10 11:43:00,
2013-08-10 05:53:00,54.0,-99.9,-100.00,North,0,0.0,0.0,-999,0.00,,,-99.99,,2013-08-10 11:53:00,
2013-08-10 06:02:00,54.0,-99.9,-100.00,North,0,0.0,0.0,-999,0.00,,,-99.99,,2013-08-10 12:02:00,
2013-08-10 06:11:00,54.0,-99.9,-100.00,North,0,0.0,0.0,-999,0.00,,,-99.99,,2013-08-10 12:11:00,
2013-08-10 06:22:00,54.0,-99.9,-100.00,North,0,0.0,0.0,-999,0.00,,,-99.99,,2013-08-10 12:22:00,
2013-08-10 06:32:00,54.0,-99.9,-100.00,North,0,0.0,0.0,-999,0.00,,,-99.99,,2013-08-10 12:32:00,
2013-08-10 06:42:00,55.0,-99.9,-100.00,North,0,0.0,0.0,-999,0.00,,,-99.99,,2013-08-10 12:42:00,
2013-08-10 06:53:00,56.0,-99.9,-100.00,North,0,0.0,0.0,-999,0.00,,,-99.99,,2013-08-10 12:53:00,
2013-08-10 07:01:00,56.0,-99.9,-100.00,North,0,0.0,0.0,-999,0.00,,,-99.99,,2013-08-10 13:01:00,
2013-08-10 07:11:00,56.0,-99.9,-100.00,North,0,0.0,0.0,-999,0.00,,,-99.99,,2013-08-10 13:11:00,
2013-08-10 07:22:00,56.0,-99.9,-100.00,North,0,0.0,0.0,-999,0.00,,,-99.99,,2013-08-10 13:22:00,
2013-08-10 07:32:00,57.0,-99.9,-100.00,North,0,0.0,0.0,-999,0.00,,,-99.99,,2013-08-10 13:32:00,
2013-08-10 07:43:00,57.0,-99.9,-100.00,North,0,0.0,0.0,-999,0.00,,,-99.99,,2013-08-10 13:43:00,
2013-08-10 07:52:00,59.0,-99.9,-100.00,North,0,0.0,0.0,-999,0.00,,,-99.99,,2013-08-10 13:52:00,
2013-08-10 08:02:00,60.0,-99.9,-100.00,North,0,0.0,0.0,-999,0.00,,,-99.99,,2013-08-10 14:02:00,
2013-08-10 08:12:00,61.0,-99.9,-100.00,North,0,0.0,0.0,-999,0.00,,,-99.99,,2013-08-10 14:12:00,
2013-08-10 08:22:00,62.0,-99.9,-100.00,North,0,0.0,0.0,-999,0.00,,,-99.99,,2013-08-10 14:22:00,
2013-08-10 08:33:00,63.0,-99.9,-100.00,North,0,0.0,0.0,-999,0.00,,,-99.99,,2013-08-10 14:33:00,
2013-08-10 08:43:00,63.0,-99.9,-100.00,SE,131,0.0,2.0,-999,0.00,,,-99.99,,2013-08-10 14:43:00,
2013-08-10 09:02:00,65.0,-99.9,-100.00,South,170,1.0,4.0,-999,0.00,,,-99.99,,2013-08-10 15:02:00,
2013-08-10 09:12:00,66.0,-99.9,-100.00,South,173,2.0,6.0,-999,0.00,,,-99.99,,2013-08-10 15:12:00,
2013-08-10 09:22:00,67.0,-99.9,-100.00,SSE,167,1.0,5.0,-999,0.00,,,-99.99,,2013-08-10 15:22:00,
2013-08-10 09:34:00,67.0,-99.9,-100.00,SSE,155,3.0,6.0,-999,0.00,,,-99.99,,2013-08-10 15:34:00,
2013-08-10 09:43:00,68.0,-99.9,-100.00,SSE,149,2.0,5.0,-999,0.00,,,-99.99,,2013-08-10 15:43:00,
2013-08-10 09:52:00,69.0,-99.9,-100.00,South,179,1.0,5.0,-999,0.00,,,-99.99,,2013-08-10 15:52:00,
2013-08-10 10:02:00,69.0,-99.9,-100.00,SSE,158,2.0,5.0,-999,0.00,,,-99.99,,2013-08-10 16:02:00,
2013-08-10 10:12:00,69.0,-99.9,-100.00,SSE,153,3.0,6.0,-999,0.00,,,-99.99,,2013-08-10 16:12:00,
2013-08-10 10:22:00,70.0,-99.9,-100.00,SSE,166,1.0,4.0,-999,0.00,,,-99.99,,2013-08-10 16:22:00,
2013-08-10 10:32:00,72.0,-99.9,-100.00,South,169,2.0,5.0,-999,0.00,,,-99.99,,2013-08-10 16:32:00,
2013-08-10 10:43:00,72.0,-99.9,-100.00,SSE,149,3.0,5.0,-999,0.00,,,-99.99,,2013-08-10 16:43:00,
2013-08-10 10:53:00,73.0,-99.9,-100.00,SE,142,1.0,4.0,-999,0.00,,,-99.99,,2013-08-10 16:53:00,
2013-08-10 11:02:00,74.0,-99.9,-100.00,South,169,1.0,5.0,-999,0.00,,,-99.99,,2013-08-10 17:02:00,
2013-08-10 11:12:00,75.0,-99.9,-100.00,South,188,3.0,6.0,-999,0.00,,,-99.99,,2013-08-10 17:12:00,
2013-08-10 11:22:00,76.0,-99.9,-100.00,South,176,2.0,5.0,-999,0.00,,,-99.99,,2013-08-10 17:22:00,
2013-08-10 11:33:00,77.0,-99.9,-100.00,SSW,211,1.0,3.0,-999,0.00,,,-99.99,,2013-08-10 17:33:00,
2013-08-10 12:02:00,78.0,-99.9,-100.00,SSE,150,0.0,2.0,-999,0.00,,,-99.99,,2013-08-10 18:02:00,
2013-08-10 12:11:00,79.0,-99.9,-100.00,South,188,2.0,5.0,-999,0.00,,,-99.99,,2013-08-10 18:11:00,
2013-08-10 12:23:00,80.0,-99.9,-100.00,South,184,3.0,5.0,-999,0.00,,,-99.99,,2013-08-10 18:23:00,
2013-08-10 12:32:00,80.0,-99.9,-100.00,SSE,167,1.0,3.0,-999,0.00,,,-99.99,,2013-08-10 18:32:00,
2013-08-10 12:44:00,80.0,-99.9,-100.00,North,0,0.0,0.0,-999,0.00,,,-99.99,,2013-08-10 18:44:00,
2013-08-10 12:52:00,80.0,-99.9,-100.00,North,0,0.0,0.0,-999,0.00,,,-99.99,,2013-08-10 18:52:00,
2013-08-10 13:02:00,78.0,-99.9,-100.00,North,0,0.0,0.0,-999,0.00,,,-99.99,,2013-08-10 19:02:00,
2013-08-10 13:12:00,78.0,-99.9,-100.00,North,0,0.0,0.0,-999,0.00,,,-99.99,,2013-08-10 19:12:00,
2013-08-10 13:22:00,77.0,-99.9,-100.00,North,0,0.0,0.0,-999,0.00,,,-99.99,,2013-08-10 19:22:00,
2013-08-10 13:33:00,78.0,-99.9,-100.00,North,0,0.0,0.0,-999,0.00,,,-99.99,,2013-08-10 19:33:00,
2013-08-10 13:44:00,78.0,-99.9,-100.00,SSE,167,1.0,3.0,-999,0.00,,,-99.99,,2013-08-10 19:44:00,
2013-08-10 13:53:00,79.0,-99.9,-100.00,North,0,0.0,0.0,-999,0.00,,,-99.99,,2013-08-10 19:53:00,
2013-08-10 14:02:00,80.0,-99.9,-100.00,SW,235,0.0,2.0,-999,0.00,,,-99.99,,2013-08-10 20:02:00,
2013-08-10 14:12:00,79.0,-99.9,-100.00,North,0,0.0,0.0,-999,0.00,,,-99.99,,2013-08-10 20:12:00,
2013-08-10 14:22:00,80.0,-99.9,-100.00,North,0,0.0,0.0,-999,0.00,,,-99.99,,2013-08-10 20:22:00,
2013-08-10 14:33:00,79.0,-99.9,-100.00,North,0,0.0,0.0,-999,0.00,,,-99.99,,2013-08-10 20:33:00,
2013-08-10 14:43:00,79.0,-99.9,-100.00,SW,235,1.0,3.0,-999,0.00,,,-99.99,,2013-08-10 20:43:00,
2013-08-10 14:53:00,79.0,-99.9,-100.00,North,0,0.0,0.0,-999,0.00,,,-99.99,,2013-08-10 20:53:00,
2013-08-10 15:02:00,82.0,-99.9,-100.00,North,0,0.0,0.0,-999,0.00,,,-99.99,,2013-08-10 21:02:00,
2013-08-10 15:12:00,84.0,-99.9,-100.00,North,0,0.0,0.0,-999,0.00,,,-99.99,,2013-08-10 21:12:00,
2013-08-10 15:22:00,84.0,-99.9,-100.00,South,190,3.0,6.0,-999,0.00,,,-99.99,,2013-08-10 21:22:00,
2013-08-10 15:32:00,84.0,-99.9,-100.00,North,0,0.0,0.0,-999,0.00,,,-99.99,,2013-08-10 21:32:00,
2013-08-10 15:43:00,83.0,-99.9,-100.00,North,0,0.0,0.0,-999,0.00,,,-99.99,,2013-08-10 21:43:00,
2013-08-10 15:52:00,84.0,-99.9,-100.00,North,0,0.0,0.0,-999,0.00,,,-99.99,,2013-08-10 21:52:00,
2013-08-10 16:02:00,83.0,-99.9,-100.00,North,0,0.0,0.0,-999,0.00,,,-99.99,,2013-08-10 22:02:00,
2013-08-10 16:11:00,85.0,-99.9,-100.00,North,0,0.0,0.0,-999,0.00,,,-99.99,,2013-08-10 22:11:00,
2013-08-10 16:22:00,85.0,-99.9,-100.00,North,0,0.0,0.0,-999,0.00,,,-99.99,,2013-08-10 22:22:00,
2013-08-10 16:32:00,85.0,-99.9,-100.00,North,0,0.0,0.0,-999,0.00,,,-99.99,,2013-08-10 22:32:00,
2013-08-10 16:43:00,84.0,-99.9,-100.00,North,0,0.0,0.0,-999,0.00,,,-99.99,,2013-08-10 22:43:00,
2013-08-10 16:53:00,85.0,-99.9,-100.00,North,0,0.0,0.0,-999,0.00,,,-99.99,,2013-08-10 22:53:00,
2013-08-10 17:02:00,86.0,-99.9,-100.00,North,0,0.0,0.0,-999,0.00,,,-99.99,,2013-08-10 23:02:00,
2013-08-10 17:12:00,86.0,-99.9,-100.00,North,0,0.0,0.0,-999,0.00,,,-99.99,,2013-08-10 23:12:00,
2013-08-10 17:22:00,87.0,-99.9,-100.00,North,0,0.0,0.0,-999,0.00,,,-99.99,,2013-08-10 23:22:00,
2013-08-10 17:33:00,88.0,-99.9,-100.00,North,0,0.0,0.0,-999,0.00,,,-99.99,,2013-08-10 23:33:00,
2013-08-10 18:32:00,70.0,-99.9,-100.00,East,87,7.0,10.0,-999,0.00,,,-99.99,,2013-08-11 00:32:00,
2013-08-10 18:52:00,69.0,-99.9,-100.00,ESE,105,7.0,9.0,-999,0.00,,,-99.99,,2013-08-11 00:52:00,
2013-08-10 19:02:00,69.0,-99.9,-100.00,ENE,65,7.0,8.0,-999,0.00,,,-99.99,,2013-08-11 01:02:00,
2013-08-10 19:12:00,69.0,-99.9,-100.00,East,80,7.0,10.0,-999,0.00,,,-99.99,,2013-08-11 01:12:00,
2013-08-10 19:22:00,68.0,-99.9,-100.00,East,83,7.0,9.0,-999,0.00,,,-99.99,,2013-08-11 01:22:00,
2013-08-10 19:32:00,68.0,-99.9,-100.00,East,91,7.0,8.0,-999,0.00,,,-99.99,,2013-08-11 01:32:00,
2013-08-10 19:43:00,69.0,-99.9,-100.00,SE,132,6.0,7.0,-999,0.00,,,-99.99,,2013-08-11 01:43:00,
2013-08-10 19:54:00,67.0,-99.9,-100.00,East,79,7.0,8.0,-999,0.00,,,-99.99,,2013-08-11 01:54:00,
2013-08-10 20:02:00,67.0,-99.9,-100.00,ENE,63,6.0,8.0,-999,0.00,,,-99.99,,2013-08-11 02:02:00,
2013-08-10 20:12:00,65.0,-99.9,-100.00,ENE,65,6.0,8.0,-999,0.00,,,-99.99,,2013-08-11 02:12:00,
2013-08-10 20:22:00,64.0,-99.9,-100.00,SE,124,6.0,7.0,-999,0.00,,,-99.99,,2013-08-11 02:22:00,
2013-08-10 20:33:00,64.0,-99.9,-100.00,ESE,103,6.0,6.0,-999,0.00,,,-99.99,,2013-08-11 02:33:00,
2013-08-10 20:43:00,63.0,-99.9,-100.00,East,93,6.0,7.0,-999,0.00,,,-99.99,,2013-08-11 02:43:00,
2013-08-10 21:07:00,62.0,-99.9,-100.00,East,98,6.0,7.0,-999,0.00,,,-99.99,,2013-08-11 03:07:00,
2013-08-10 21:18:00,61.0,-99.9,-100.00,East,80,6.0,7.0,-999,0.00,,,-99.99,,2013-08-11 03:18:00,
2013-08-10 21:30:00,61.0,-99.9,-100.00,East,97,6.0,7.0,-999,0.00,,,-99.99,,2013-08-11 03:30:00,
2013-08-10 21:47:00,61.0,-99.9,-100.00,ENE,73,5.0,7.0,-999,0.00,,,-99.99,,2013-08-11 03:47:00,
2013-08-10 21:59:00,60.0,-99.9,-100.00,East,97,5.0,7.0,-999,0.00,,,-99.99,,2013-08-11 03:59:00,
2013-08-10 22:01:00,60.0,-99.9,-100.00,ESE,103,5.0,7.0,-999,0.00,,,-99.99,,2013-08-11 04:01:00,
2013-08-10 22:12:00,60.0,-99.9,-100.00,East,96,5.0,6.0,-999,0.00,,,-99.99,,2013-08-11 04:12:00,
2013-08-10 22:22:00,60.0,-99.9,-100.00,ESE,105,4.0,6.0,-999,0.00,,,-99.99,,2013-08-11 04:22:00,
2013-08-10 22:32:00,59.0,-99.9,-100.00,ESE,113,4.0,6.0,-999,0.00,,,-99.99,,2013-08-11 04:32:00,
2013-08-10 22:43:00,59.0,-99.9,-100.00,North,0,0.0,0.0,-999,0.00,,,-99.99,,2013-08-11 04:43:00,
2013-08-10 22:53:00,59.0,-99.9,-100.00,North,0,0.0,0.0,-999,0.00,,,-99.99,,2013-08-11 04:53:00,
2013-08-10 23:02:00,59.0,-99.9,-100.00,North,0,0.0,0.0,-999,0.00,,,-99.99,,2013-08-11 05:02:00,
2013-08-10 23:21:00,59.0,-99.9,-100.00,North,0,0.0,0.0,-999,0.00,,,-99.99,,2013-08-11 05:21:00,
2013-08-10 23:26:00,58.0,-99.9,-100.00,East,82,1.0,3.0,-999,0.00,,,-99.99,,2013-08-11 05:26:00,
2013-08-10 23:38:00,58.0,-99.9,-100.00,North,0,0.0,0.0,-999,0.00,,,-99.99,,2013-08-11 05:38:00,
2013-08-10 23:52:00,58.0,-99.9,-100.00,North,0,0.0,0.0,-999,0.00,,,-99.99,,2013-08-11 05:52:00,
2013-08-10 23:59:00,58.0,-99.9,-100.00,North,0,0.0,0.0,-999,0.00,,,-99.99,,2013-08-11 05:59:00,